sensor_id;sensor_type;location;lat;lon;timestamp;P1;durP1;ratioP1;P2;durP2;ratioP2
21239;SDS011;10778;48.962;9.018;2023-04-24T00:00:29;1.60;;;0.90;;
21239;SDS011;10778;48.962;9.018;2023-04-24T00:02:55;1.40;;;0.90;;
21239;SDS011;10778;48.962;9.018;2023-04-24T00:05:22;1.70;;;0.80;;
21239;SDS011;10778;48.962;9.018;2023-04-24T00:07:49;1.02;;;0.77;;
21239;SDS011;10778;48.962;9.018;2023-04-24T00:10:18;2.38;;;0.90;;
21239;SDS011;10778;48.962;9.018;2023-04-24T00:12:44;1.92;;;0.85;;
21239;SDS011;10778;48.962;9.018;2023-04-24T00:15:10;1.90;;;0.80;;
21239;SDS011;10778;48.962;9.018;2023-04-24T00:17:36;1.10;;;0.63;;
21239;SDS011;10778;48.962;9.018;2023-04-24T00:20:03;2.97;;;0.98;;
21239;SDS011;10778;48.962;9.018;2023-04-24T00:22:30;1.45;;;0.80;;
21239;SDS011;10778;48.962;9.018;2023-04-24T00:24:57;1.88;;;0.70;;
21239;SDS011;10778;48.962;9.018;2023-04-24T00:27:23;2.42;;;0.70;;
21239;SDS011;10778;48.962;9.018;2023-04-24T00:29:49;2.67;;;0.80;;
21239;SDS011;10778;48.962;9.018;2023-04-24T00:32:15;2.65;;;0.90;;
21239;SDS011;10778;48.962;9.018;2023-04-24T00:34:42;2.22;;;0.90;;
21239;SDS011;10778;48.962;9.018;2023-04-24T00:37:08;1.90;;;0.90;;
21239;SDS011;10778;48.962;9.018;2023-04-24T00:39:34;2.80;;;0.90;;
21239;SDS011;10778;48.962;9.018;2023-04-24T00:42:00;2.13;;;0.80;;
21239;SDS011;10778;48.962;9.018;2023-04-24T00:44:27;2.50;;;0.82;;
21239;SDS011;10778;48.962;9.018;2023-04-24T00:46:54;2.88;;;0.80;;
21239;SDS011;10778;48.962;9.018;2023-04-24T00:49:21;1.33;;;0.70;;
21239;SDS011;10778;48.962;9.018;2023-04-24T00:51:48;2.45;;;0.80;;
21239;SDS011;10778;48.962;9.018;2023-04-24T00:54:15;1.98;;;0.80;;
21239;SDS011;10778;48.962;9.018;2023-04-24T00:56:42;1.08;;;0.70;;
21239;SDS011;10778;48.962;9.018;2023-04-24T00:59:09;1.13;;;0.60;;
21239;SDS011;10778;48.962;9.018;2023-04-24T01:01:38;1.88;;;0.68;;
21239;SDS011;10778;48.962;9.018;2023-04-24T01:04:08;3.45;;;0.70;;
21239;SDS011;10778;48.962;9.018;2023-04-24T01:06:35;2.13;;;0.65;;
21239;SDS011;10778;48.962;9.018;2023-04-24T01:09:04;2.50;;;0.80;;
21239;SDS011;10778;48.962;9.018;2023-04-24T01:11:30;1.10;;;0.60;;
21239;SDS011;10778;48.962;9.018;2023-04-24T01:13:57;1.67;;;0.70;;
21239;SDS011;10778;48.962;9.018;2023-04-24T01:16:24;2.10;;;0.57;;
21239;SDS011;10778;48.962;9.018;2023-04-24T01:18:50;2.92;;;0.75;;
21239;SDS011;10778;48.962;9.018;2023-04-24T01:21:18;2.33;;;0.60;;
21239;SDS011;10778;48.962;9.018;2023-04-24T01:23:46;2.63;;;0.80;;
21239;SDS011;10778;48.962;9.018;2023-04-24T01:26:15;1.75;;;0.70;;
21239;SDS011;10778;48.962;9.018;2023-04-24T01:28:44;1.10;;;0.60;;
21239;SDS011;10778;48.962;9.018;2023-04-24T01:31:10;1.77;;;0.70;;
21239;SDS011;10778;48.962;9.018;2023-04-24T01:33:36;1.65;;;0.80;;
21239;SDS011;10778;48.962;9.018;2023-04-24T01:36:02;1.05;;;0.68;;
21239;SDS011;10778;48.962;9.018;2023-04-24T01:38:28;1.27;;;0.47;;
21239;SDS011;10778;48.962;9.018;2023-04-24T01:40:54;1.48;;;0.60;;
21239;SDS011;10778;48.962;9.018;2023-04-24T01:43:20;2.58;;;0.70;;
21239;SDS011;10778;48.962;9.018;2023-04-24T01:45:47;4.10;;;0.60;;
21239;SDS011;10778;48.962;9.018;2023-04-24T01:48:13;1.50;;;0.70;;
21239;SDS011;10778;48.962;9.018;2023-04-24T01:50:39;0.82;;;0.63;;
21239;SDS011;10778;48.962;9.018;2023-04-24T01:53:05;1.85;;;0.63;;
21239;SDS011;10778;48.962;9.018;2023-04-24T01:55:31;1.88;;;0.70;;
21239;SDS011;10778;48.962;9.018;2023-04-24T01:57:58;2.72;;;0.82;;
21239;SDS011;10778;48.962;9.018;2023-04-24T02:00:25;1.70;;;0.60;;
21239;SDS011;10778;48.962;9.018;2023-04-24T02:02:52;1.27;;;0.65;;
21239;SDS011;10778;48.962;9.018;2023-04-24T02:05:18;2.05;;;0.68;;
21239;SDS011;10778;48.962;9.018;2023-04-24T02:07:44;1.98;;;0.80;;
21239;SDS011;10778;48.962;9.018;2023-04-24T02:10:10;1.23;;;0.60;;
21239;SDS011;10778;48.962;9.018;2023-04-24T02:12:41;0.95;;;0.60;;
21239;SDS011;10778;48.962;9.018;2023-04-24T02:15:07;1.08;;;0.68;;
21239;SDS011;10778;48.962;9.018;2023-04-24T02:17:36;1.25;;;0.75;;
21239;SDS011;10778;48.962;9.018;2023-04-24T02:20:04;2.50;;;0.70;;
21239;SDS011;10778;48.962;9.018;2023-04-24T02:22:32;1.60;;;0.60;;
21239;SDS011;10778;48.962;9.018;2023-04-24T02:25:01;1.63;;;0.60;;
21239;SDS011;10778;48.962;9.018;2023-04-24T02:27:27;0.95;;;0.50;;
21239;SDS011;10778;48.962;9.018;2023-04-24T02:29:53;1.25;;;0.75;;
21239;SDS011;10778;48.962;9.018;2023-04-24T02:32:19;0.90;;;0.75;;
21239;SDS011;10778;48.962;9.018;2023-04-24T02:34:45;2.13;;;0.75;;
21239;SDS011;10778;48.962;9.018;2023-04-24T02:37:11;2.03;;;0.70;;
21239;SDS011;10778;48.962;9.018;2023-04-24T02:39:37;0.63;;;0.52;;
21239;SDS011;10778;48.962;9.018;2023-04-24T02:42:03;1.90;;;0.65;;
21239;SDS011;10778;48.962;9.018;2023-04-24T02:44:30;1.50;;;0.68;;
21239;SDS011;10778;48.962;9.018;2023-04-24T02:46:56;1.60;;;0.60;;
21239;SDS011;10778;48.962;9.018;2023-04-24T02:49:22;3.25;;;0.60;;
21239;SDS011;10778;48.962;9.018;2023-04-24T02:51:48;1.42;;;0.52;;
21239;SDS011;10778;48.962;9.018;2023-04-24T02:54:14;2.17;;;0.77;;
21239;SDS011;10778;48.962;9.018;2023-04-24T02:56:40;2.75;;;0.80;;
21239;SDS011;10778;48.962;9.018;2023-04-24T02:59:07;3.25;;;0.80;;
21239;SDS011;10778;48.962;9.018;2023-04-24T03:01:34;1.83;;;0.90;;
21239;SDS011;10778;48.962;9.018;2023-04-24T03:04:00;1.45;;;0.70;;
21239;SDS011;10778;48.962;9.018;2023-04-24T03:06:26;1.75;;;0.63;;
21239;SDS011;10778;48.962;9.018;2023-04-24T03:08:52;0.98;;;0.60;;
21239;SDS011;10778;48.962;9.018;2023-04-24T03:11:19;2.25;;;0.95;;
21239;SDS011;10778;48.962;9.018;2023-04-24T03:13:45;2.33;;;0.80;;
21239;SDS011;10778;48.962;9.018;2023-04-24T03:16:11;1.55;;;0.80;;
21239;SDS011;10778;48.962;9.018;2023-04-24T03:18:37;2.40;;;1.00;;
21239;SDS011;10778;48.962;9.018;2023-04-24T03:21:05;1.88;;;0.80;;
21239;SDS011;10778;48.962;9.018;2023-04-24T03:23:32;2.30;;;0.73;;
21239;SDS011;10778;48.962;9.018;2023-04-24T03:25:58;4.53;;;0.90;;
21239;SDS011;10778;48.962;9.018;2023-04-24T03:28:24;1.83;;;0.75;;
21239;SDS011;10778;48.962;9.018;2023-04-24T03:30:58;2.95;;;0.70;;
21239;SDS011;10778;48.962;9.018;2023-04-24T03:33:26;1.88;;;0.77;;
21239;SDS011;10778;48.962;9.018;2023-04-24T03:36:01;1.40;;;0.70;;
21239;SDS011;10778;48.962;9.018;2023-04-24T03:38:35;1.67;;;0.70;;
21239;SDS011;10778;48.962;9.018;2023-04-24T03:41:24;2.08;;;0.70;;
21239;SDS011;10778;48.962;9.018;2023-04-24T03:44:16;1.58;;;0.68;;
21239;SDS011;10778;48.962;9.018;2023-04-24T03:46:42;2.65;;;0.85;;
21239;SDS011;10778;48.962;9.018;2023-04-24T03:49:08;1.83;;;0.93;;
21239;SDS011;10778;48.962;9.018;2023-04-24T03:51:38;2.05;;;1.00;;
21239;SDS011;10778;48.962;9.018;2023-04-24T03:54:18;3.50;;;1.10;;
21239;SDS011;10778;48.962;9.018;2023-04-24T03:56:45;4.55;;;1.20;;
21239;SDS011;10778;48.962;9.018;2023-04-24T03:59:12;2.78;;;0.90;;
21239;SDS011;10778;48.962;9.018;2023-04-24T04:01:40;2.67;;;0.70;;
21239;SDS011;10778;48.962;9.018;2023-04-24T04:04:13;2.47;;;0.70;;
21239;SDS011;10778;48.962;9.018;2023-04-24T04:06:39;2.40;;;0.80;;
21239;SDS011;10778;48.962;9.018;2023-04-24T04:09:06;2.95;;;0.70;;
21239;SDS011;10778;48.962;9.018;2023-04-24T04:11:33;1.92;;;0.90;;
21239;SDS011;10778;48.962;9.018;2023-04-24T04:13:59;3.50;;;0.90;;
21239;SDS011;10778;48.962;9.018;2023-04-24T04:16:25;1.60;;;0.95;;
21239;SDS011;10778;48.962;9.018;2023-04-24T04:18:56;2.00;;;0.88;;
21239;SDS011;10778;48.962;9.018;2023-04-24T04:21:22;1.63;;;1.10;;
21239;SDS011;10778;48.962;9.018;2023-04-24T04:23:52;1.95;;;1.10;;
21239;SDS011;10778;48.962;9.018;2023-04-24T04:26:22;1.80;;;1.10;;
21239;SDS011;10778;48.962;9.018;2023-04-24T04:29:01;2.53;;;1.20;;
21239;SDS011;10778;48.962;9.018;2023-04-24T04:31:29;3.65;;;1.50;;
21239;SDS011;10778;48.962;9.018;2023-04-24T04:33:58;2.47;;;1.20;;
21239;SDS011;10778;48.962;9.018;2023-04-24T04:36:25;2.33;;;1.40;;
21239;SDS011;10778;48.962;9.018;2023-04-24T04:38:59;2.10;;;1.35;;
21239;SDS011;10778;48.962;9.018;2023-04-24T04:41:54;2.88;;;1.40;;
21239;SDS011;10778;48.962;9.018;2023-04-24T04:44:23;4.00;;;1.40;;
21239;SDS011;10778;48.962;9.018;2023-04-24T04:46:51;5.65;;;1.40;;
21239;SDS011;10778;48.962;9.018;2023-04-24T04:49:26;2.15;;;1.45;;
21239;SDS011;10778;48.962;9.018;2023-04-24T04:51:54;2.25;;;1.60;;
21239;SDS011;10778;48.962;9.018;2023-04-24T04:54:21;3.85;;;1.42;;
21239;SDS011;10778;48.962;9.018;2023-04-24T04:56:47;2.10;;;1.50;;
21239;SDS011;10778;48.962;9.018;2023-04-24T04:59:16;1.95;;;1.33;;
21239;SDS011;10778;48.962;9.018;2023-04-24T05:01:42;2.63;;;1.67;;
21239;SDS011;10778;48.962;9.018;2023-04-24T05:04:10;3.33;;;1.52;;
21239;SDS011;10778;48.962;9.018;2023-04-24T05:06:37;1.98;;;1.27;;
21239;SDS011;10778;48.962;9.018;2023-04-24T05:09:04;1.92;;;1.50;;
21239;SDS011;10778;48.962;9.018;2023-04-24T05:11:48;4.18;;;1.73;;
21239;SDS011;10778;48.962;9.018;2023-04-24T05:14:15;2.53;;;1.60;;
21239;SDS011;10778;48.962;9.018;2023-04-24T05:16:43;2.13;;;1.80;;
21239;SDS011;10778;48.962;9.018;2023-04-24T05:19:11;4.28;;;1.90;;
21239;SDS011;10778;48.962;9.018;2023-04-24T05:21:40;3.45;;;1.70;;
21239;SDS011;10778;48.962;9.018;2023-04-24T05:24:08;3.05;;;1.55;;
21239;SDS011;10778;48.962;9.018;2023-04-24T05:27:00;3.08;;;1.55;;
21239;SDS011;10778;48.962;9.018;2023-04-24T05:29:34;3.15;;;1.80;;
21239;SDS011;10778;48.962;9.018;2023-04-24T05:32:03;2.90;;;2.00;;
21239;SDS011;10778;48.962;9.018;2023-04-24T05:34:30;2.70;;;2.10;;
21239;SDS011;10778;48.962;9.018;2023-04-24T05:36:57;2.38;;;1.75;;
21239;SDS011;10778;48.962;9.018;2023-04-24T05:39:23;3.25;;;2.17;;
21239;SDS011;10778;48.962;9.018;2023-04-24T05:41:51;4.07;;;2.50;;
21239;SDS011;10778;48.962;9.018;2023-04-24T05:44:17;3.08;;;2.10;;
21239;SDS011;10778;48.962;9.018;2023-04-24T05:46:43;5.00;;;1.98;;
21239;SDS011;10778;48.962;9.018;2023-04-24T05:49:10;3.33;;;1.92;;
21239;SDS011;10778;48.962;9.018;2023-04-24T05:51:37;4.47;;;2.00;;
21239;SDS011;10778;48.962;9.018;2023-04-24T05:54:03;4.00;;;1.90;;
21239;SDS011;10778;48.962;9.018;2023-04-24T05:56:30;5.53;;;2.00;;
21239;SDS011;10778;48.962;9.018;2023-04-24T05:58:58;3.60;;;1.90;;
21239;SDS011;10778;48.962;9.018;2023-04-24T06:01:24;2.78;;;1.80;;
21239;SDS011;10778;48.962;9.018;2023-04-24T06:03:58;2.75;;;1.75;;
21239;SDS011;10778;48.962;9.018;2023-04-24T06:06:25;3.35;;;1.77;;
21239;SDS011;10778;48.962;9.018;2023-04-24T06:08:52;3.45;;;1.90;;
21239;SDS011;10778;48.962;9.018;2023-04-24T06:11:19;2.50;;;1.60;;
21239;SDS011;10778;48.962;9.018;2023-04-24T06:13:45;2.85;;;1.80;;
21239;SDS011;10778;48.962;9.018;2023-04-24T06:16:29;2.95;;;1.80;;
21239;SDS011;10778;48.962;9.018;2023-04-24T06:19:02;4.70;;;1.70;;
21239;SDS011;10778;48.962;9.018;2023-04-24T06:21:28;2.05;;;1.50;;
21239;SDS011;10778;48.962;9.018;2023-04-24T06:23:54;3.88;;;1.67;;
21239;SDS011;10778;48.962;9.018;2023-04-24T06:26:21;3.00;;;1.75;;
21239;SDS011;10778;48.962;9.018;2023-04-24T06:28:49;2.80;;;1.73;;
21239;SDS011;10778;48.962;9.018;2023-04-24T06:31:16;3.03;;;1.67;;
21239;SDS011;10778;48.962;9.018;2023-04-24T06:33:42;2.80;;;1.80;;
21239;SDS011;10778;48.962;9.018;2023-04-24T06:36:09;1.65;;;1.50;;
21239;SDS011;10778;48.962;9.018;2023-04-24T06:38:35;4.88;;;1.73;;
21239;SDS011;10778;48.962;9.018;2023-04-24T06:41:01;3.55;;;1.73;;
21239;SDS011;10778;48.962;9.018;2023-04-24T06:43:27;4.32;;;1.50;;
21239;SDS011;10778;48.962;9.018;2023-04-24T06:45:53;2.90;;;1.80;;
21239;SDS011;10778;48.962;9.018;2023-04-24T06:48:19;4.68;;;1.90;;
21239;SDS011;10778;48.962;9.018;2023-04-24T06:50:45;4.00;;;1.90;;
21239;SDS011;10778;48.962;9.018;2023-04-24T06:53:12;3.30;;;1.83;;
21239;SDS011;10778;48.962;9.018;2023-04-24T06:55:39;2.88;;;1.90;;
21239;SDS011;10778;48.962;9.018;2023-04-24T06:58:06;4.60;;;2.10;;
21239;SDS011;10778;48.962;9.018;2023-04-24T07:00:32;4.90;;;2.10;;
21239;SDS011;10778;48.962;9.018;2023-04-24T07:02:58;4.25;;;2.30;;
21239;SDS011;10778;48.962;9.018;2023-04-24T07:05:24;2.30;;;1.65;;
21239;SDS011;10778;48.962;9.018;2023-04-24T07:07:50;2.55;;;2.20;;
21239;SDS011;10778;48.962;9.018;2023-04-24T07:10:17;4.82;;;2.10;;
21239;SDS011;10778;48.962;9.018;2023-04-24T07:12:43;3.40;;;2.08;;
21239;SDS011;10778;48.962;9.018;2023-04-24T07:15:09;5.38;;;1.90;;
21239;SDS011;10778;48.962;9.018;2023-04-24T07:17:36;4.38;;;1.90;;
21239;SDS011;10778;48.962;9.018;2023-04-24T07:20:04;3.60;;;1.70;;
21239;SDS011;10778;48.962;9.018;2023-04-24T07:22:31;2.63;;;1.60;;
21239;SDS011;10778;48.962;9.018;2023-04-24T07:24:57;5.45;;;1.90;;
21239;SDS011;10778;48.962;9.018;2023-04-24T07:27:23;2.05;;;1.70;;
21239;SDS011;10778;48.962;9.018;2023-04-24T07:29:49;4.15;;;1.60;;
21239;SDS011;10778;48.962;9.018;2023-04-24T07:32:15;2.53;;;1.70;;
21239;SDS011;10778;48.962;9.018;2023-04-24T07:34:41;4.25;;;1.70;;
21239;SDS011;10778;48.962;9.018;2023-04-24T07:37:06;3.45;;;2.13;;
21239;SDS011;10778;48.962;9.018;2023-04-24T07:39:32;4.28;;;1.80;;
21239;SDS011;10778;48.962;9.018;2023-04-24T07:41:59;3.25;;;1.50;;
21239;SDS011;10778;48.962;9.018;2023-04-24T07:44:24;1.95;;;1.30;;
21239;SDS011;10778;48.962;9.018;2023-04-24T07:46:51;3.28;;;1.70;;
21239;SDS011;10778;48.962;9.018;2023-04-24T07:49:17;2.80;;;1.50;;
21239;SDS011;10778;48.962;9.018;2023-04-24T07:51:44;2.03;;;1.40;;
21239;SDS011;10778;48.962;9.018;2023-04-24T07:54:10;3.63;;;1.45;;
21239;SDS011;10778;48.962;9.018;2023-04-24T07:56:36;3.10;;;1.40;;
21239;SDS011;10778;48.962;9.018;2023-04-24T07:59:04;2.97;;;1.30;;
21239;SDS011;10778;48.962;9.018;2023-04-24T08:01:31;3.33;;;1.55;;
21239;SDS011;10778;48.962;9.018;2023-04-24T08:03:57;3.85;;;1.35;;
21239;SDS011;10778;48.962;9.018;2023-04-24T08:06:23;2.30;;;1.20;;
21239;SDS011;10778;48.962;9.018;2023-04-24T08:08:49;6.25;;;1.27;;
21239;SDS011;10778;48.962;9.018;2023-04-24T08:11:17;2.08;;;1.30;;
21239;SDS011;10778;48.962;9.018;2023-04-24T08:13:43;4.53;;;1.40;;
21239;SDS011;10778;48.962;9.018;2023-04-24T08:16:09;2.30;;;1.20;;
21239;SDS011;10778;48.962;9.018;2023-04-24T08:18:35;2.17;;;1.42;;
21239;SDS011;10778;48.962;9.018;2023-04-24T08:21:01;3.42;;;1.60;;
21239;SDS011;10778;48.962;9.018;2023-04-24T08:23:27;2.72;;;1.40;;
21239;SDS011;10778;48.962;9.018;2023-04-24T08:25:56;5.18;;;1.58;;
21239;SDS011;10778;48.962;9.018;2023-04-24T08:28:23;3.88;;;1.35;;
21239;SDS011;10778;48.962;9.018;2023-04-24T08:30:49;3.58;;;1.17;;
21239;SDS011;10778;48.962;9.018;2023-04-24T08:33:20;4.82;;;1.48;;
21239;SDS011;10778;48.962;9.018;2023-04-24T08:35:48;3.38;;;1.10;;
21239;SDS011;10778;48.962;9.018;2023-04-24T08:38:14;6.70;;;1.17;;
21239;SDS011;10778;48.962;9.018;2023-04-24T08:40:41;2.28;;;0.90;;
21239;SDS011;10778;48.962;9.018;2023-04-24T08:43:07;2.15;;;1.38;;
21239;SDS011;10778;48.962;9.018;2023-04-24T08:45:33;3.00;;;1.10;;
21239;SDS011;10778;48.962;9.018;2023-04-24T08:48:00;3.50;;;1.10;;
21239;SDS011;10778;48.962;9.018;2023-04-24T08:50:27;2.00;;;1.23;;
21239;SDS011;10778;48.962;9.018;2023-04-24T08:52:54;2.13;;;1.10;;
21239;SDS011;10778;48.962;9.018;2023-04-24T08:55:20;2.20;;;1.02;;
21239;SDS011;10778;48.962;9.018;2023-04-24T08:57:50;1.35;;;1.02;;
21239;SDS011;10778;48.962;9.018;2023-04-24T09:00:20;2.35;;;1.00;;
21239;SDS011;10778;48.962;9.018;2023-04-24T09:02:47;3.22;;;1.20;;
21239;SDS011;10778;48.962;9.018;2023-04-24T09:05:18;2.80;;;1.30;;
21239;SDS011;10778;48.962;9.018;2023-04-24T09:07:49;3.03;;;1.20;;
21239;SDS011;10778;48.962;9.018;2023-04-24T09:10:20;2.05;;;1.02;;
21239;SDS011;10778;48.962;9.018;2023-04-24T09:12:47;3.47;;;1.10;;
21239;SDS011;10778;48.962;9.018;2023-04-24T09:15:16;1.95;;;1.20;;
21239;SDS011;10778;48.962;9.018;2023-04-24T09:17:42;2.25;;;1.00;;
21239;SDS011;10778;48.962;9.018;2023-04-24T09:20:09;2.83;;;1.17;;
21239;SDS011;10778;48.962;9.018;2023-04-24T09:22:36;3.00;;;1.23;;
21239;SDS011;10778;48.962;9.018;2023-04-24T09:25:06;1.80;;;1.20;;
21239;SDS011;10778;48.962;9.018;2023-04-24T09:27:34;1.77;;;1.20;;
21239;SDS011;10778;48.962;9.018;2023-04-24T09:30:01;4.25;;;1.40;;
21239;SDS011;10778;48.962;9.018;2023-04-24T09:32:28;3.45;;;1.33;;
21239;SDS011;10778;48.962;9.018;2023-04-24T09:35:09;2.15;;;1.10;;
21239;SDS011;10778;48.962;9.018;2023-04-24T09:37:44;3.67;;;1.23;;
21239;SDS011;10778;48.962;9.018;2023-04-24T09:42:44;4.05;;;1.50;;
21239;SDS011;10778;48.962;9.018;2023-04-24T09:45:22;2.85;;;1.20;;
21239;SDS011;10778;48.962;9.018;2023-04-24T09:48:02;2.13;;;1.10;;
21239;SDS011;10778;48.962;9.018;2023-04-24T09:50:30;2.13;;;1.17;;
21239;SDS011;10778;48.962;9.018;2023-04-24T09:52:58;6.00;;;1.20;;
21239;SDS011;10778;48.962;9.018;2023-04-24T09:55:26;3.15;;;1.00;;
21239;SDS011;10778;48.962;9.018;2023-04-24T10:00:31;1.88;;;1.10;;
21239;SDS011;10778;48.962;9.018;2023-04-24T10:03:02;1.90;;;1.20;;
21239;SDS011;10778;48.962;9.018;2023-04-24T10:05:30;1.77;;;1.10;;
21239;SDS011;10778;48.962;9.018;2023-04-24T10:08:00;2.85;;;1.20;;
21239;SDS011;10778;48.962;9.018;2023-04-24T10:10:33;2.47;;;1.30;;
21239;SDS011;10778;48.962;9.018;2023-04-24T10:13:00;6.22;;;1.50;;
21239;SDS011;10778;48.962;9.018;2023-04-24T10:15:27;2.80;;;1.25;;
21239;SDS011;10778;48.962;9.018;2023-04-24T10:17:53;3.65;;;1.30;;
21239;SDS011;10778;48.962;9.018;2023-04-24T10:20:20;2.78;;;1.30;;
21239;SDS011;10778;48.962;9.018;2023-04-24T10:22:52;2.30;;;1.30;;
21239;SDS011;10778;48.962;9.018;2023-04-24T10:25:20;3.00;;;1.40;;
21239;SDS011;10778;48.962;9.018;2023-04-24T10:27:48;4.60;;;1.58;;
21239;SDS011;10778;48.962;9.018;2023-04-24T10:30:15;6.40;;;2.90;;
21239;SDS011;10778;48.962;9.018;2023-04-24T10:32:42;3.67;;;1.65;;
21239;SDS011;10778;48.962;9.018;2023-04-24T10:35:08;3.78;;;2.00;;
21239;SDS011;10778;48.962;9.018;2023-04-24T10:37:43;4.45;;;2.00;;
21239;SDS011;10778;48.962;9.018;2023-04-24T10:40:12;3.85;;;1.88;;
21239;SDS011;10778;48.962;9.018;2023-04-24T10:42:43;3.53;;;2.47;;
21239;SDS011;10778;48.962;9.018;2023-04-24T10:45:17;2.95;;;1.80;;
21239;SDS011;10778;48.962;9.018;2023-04-24T10:50:27;2.78;;;2.00;;
21239;SDS011;10778;48.962;9.018;2023-04-24T10:53:05;2.70;;;1.58;;
21239;SDS011;10778;48.962;9.018;2023-04-24T10:55:40;2.58;;;1.70;;
21239;SDS011;10778;48.962;9.018;2023-04-24T10:58:08;2.83;;;1.98;;
21239;SDS011;10778;48.962;9.018;2023-04-24T11:00:38;3.22;;;1.70;;
21239;SDS011;10778;48.962;9.018;2023-04-24T11:03:22;3.03;;;1.67;;
21239;SDS011;10778;48.962;9.018;2023-04-24T11:05:51;3.08;;;2.20;;
21239;SDS011;10778;48.962;9.018;2023-04-24T11:08:25;3.72;;;1.40;;
21239;SDS011;10778;48.962;9.018;2023-04-24T11:24:25;2.92;;;1.73;;
21239;SDS011;10778;48.962;9.018;2023-04-24T11:26:55;2.47;;;1.80;;
21239;SDS011;10778;48.962;9.018;2023-04-24T11:29:37;3.25;;;2.00;;
21239;SDS011;10778;48.962;9.018;2023-04-24T11:32:17;5.32;;;1.88;;
21239;SDS011;10778;48.962;9.018;2023-04-24T11:34:51;3.40;;;1.80;;
21239;SDS011;10778;48.962;9.018;2023-04-24T11:37:28;6.82;;;1.75;;
21239;SDS011;10778;48.962;9.018;2023-04-24T11:39:55;2.95;;;1.63;;
21239;SDS011;10778;48.962;9.018;2023-04-24T11:42:22;3.22;;;1.50;;
21239;SDS011;10778;48.962;9.018;2023-04-24T11:44:50;3.72;;;1.60;;
21239;SDS011;10778;48.962;9.018;2023-04-24T11:47:18;2.72;;;1.70;;
21239;SDS011;10778;48.962;9.018;2023-04-24T11:49:44;6.00;;;1.80;;
21239;SDS011;10778;48.962;9.018;2023-04-24T11:52:10;3.80;;;2.00;;
21239;SDS011;10778;48.962;9.018;2023-04-24T11:54:36;3.55;;;2.00;;
21239;SDS011;10778;48.962;9.018;2023-04-24T11:57:05;2.92;;;1.80;;
21239;SDS011;10778;48.962;9.018;2023-04-24T11:59:35;3.22;;;2.30;;
21239;SDS011;10778;48.962;9.018;2023-04-24T12:02:03;3.08;;;2.15;;
21239;SDS011;10778;48.962;9.018;2023-04-24T12:04:37;4.82;;;2.20;;
21239;SDS011;10778;48.962;9.018;2023-04-24T12:07:05;4.38;;;1.95;;
21239;SDS011;10778;48.962;9.018;2023-04-24T12:12:09;5.13;;;2.40;;
21239;SDS011;10778;48.962;9.018;2023-04-24T12:14:49;3.65;;;2.10;;
21239;SDS011;10778;48.962;9.018;2023-04-24T12:17:17;3.70;;;2.00;;
21239;SDS011;10778;48.962;9.018;2023-04-24T12:19:50;3.00;;;1.80;;
21239;SDS011;10778;48.962;9.018;2023-04-24T12:22:16;3.03;;;1.65;;
21239;SDS011;10778;48.962;9.018;2023-04-24T12:24:55;2.85;;;1.70;;
21239;SDS011;10778;48.962;9.018;2023-04-24T12:27:28;2.42;;;1.92;;
21239;SDS011;10778;48.962;9.018;2023-04-24T12:29:56;2.80;;;2.15;;
21239;SDS011;10778;48.962;9.018;2023-04-24T12:32:23;3.90;;;2.40;;
21239;SDS011;10778;48.962;9.018;2023-04-24T12:34:51;3.63;;;2.40;;
21239;SDS011;10778;48.962;9.018;2023-04-24T12:37:17;4.78;;;2.35;;
21239;SDS011;10778;48.962;9.018;2023-04-24T12:42:26;6.63;;;2.50;;
21239;SDS011;10778;48.962;9.018;2023-04-24T12:44:57;2.70;;;2.40;;
21239;SDS011;10778;48.962;9.018;2023-04-24T12:47:25;3.30;;;2.47;;
21239;SDS011;10778;48.962;9.018;2023-04-24T12:49:52;3.72;;;2.30;;
21239;SDS011;10778;48.962;9.018;2023-04-24T12:52:19;3.53;;;2.58;;
21239;SDS011;10778;48.962;9.018;2023-04-24T12:54:49;5.90;;;2.40;;
21239;SDS011;10778;48.962;9.018;2023-04-24T12:57:17;4.28;;;2.60;;
21239;SDS011;10778;48.962;9.018;2023-04-24T12:59:43;4.28;;;2.72;;
21239;SDS011;10778;48.962;9.018;2023-04-24T13:02:10;4.85;;;2.95;;
21239;SDS011;10778;48.962;9.018;2023-04-24T13:04:36;5.13;;;2.90;;
21239;SDS011;10778;48.962;9.018;2023-04-24T13:07:03;3.28;;;2.72;;
21239;SDS011;10778;48.962;9.018;2023-04-24T13:09:29;6.22;;;2.78;;
21239;SDS011;10778;48.962;9.018;2023-04-24T13:11:55;5.57;;;2.95;;
21239;SDS011;10778;48.962;9.018;2023-04-24T13:14:22;4.65;;;2.55;;
21239;SDS011;10778;48.962;9.018;2023-04-24T13:16:48;5.03;;;2.53;;
21239;SDS011;10778;48.962;9.018;2023-04-24T13:19:14;5.20;;;2.40;;
21239;SDS011;10778;48.962;9.018;2023-04-24T13:21:40;3.85;;;2.40;;
21239;SDS011;10778;48.962;9.018;2023-04-24T13:24:06;3.03;;;2.53;;
21239;SDS011;10778;48.962;9.018;2023-04-24T13:26:33;4.03;;;2.70;;
21239;SDS011;10778;48.962;9.018;2023-04-24T13:28:59;4.93;;;2.60;;
21239;SDS011;10778;48.962;9.018;2023-04-24T13:31:25;4.32;;;3.05;;
21239;SDS011;10778;48.962;9.018;2023-04-24T13:33:51;3.75;;;2.42;;
21239;SDS011;10778;48.962;9.018;2023-04-24T13:36:18;5.32;;;2.35;;
21239;SDS011;10778;48.962;9.018;2023-04-24T13:38:44;4.60;;;2.30;;
21239;SDS011;10778;48.962;9.018;2023-04-24T13:41:10;4.40;;;2.50;;
21239;SDS011;10778;48.962;9.018;2023-04-24T13:43:36;3.40;;;2.40;;
21239;SDS011;10778;48.962;9.018;2023-04-24T13:46:02;2.97;;;2.30;;
21239;SDS011;10778;48.962;9.018;2023-04-24T13:48:29;3.92;;;2.35;;
21239;SDS011;10778;48.962;9.018;2023-04-24T13:50:55;3.78;;;2.03;;
21239;SDS011;10778;48.962;9.018;2023-04-24T13:53:21;3.95;;;2.13;;
21239;SDS011;10778;48.962;9.018;2023-04-24T13:55:47;5.50;;;2.33;;
21239;SDS011;10778;48.962;9.018;2023-04-24T13:58:13;5.22;;;4.35;;
21239;SDS011;10778;48.962;9.018;2023-04-24T14:00:40;3.53;;;2.55;;
21239;SDS011;10778;48.962;9.018;2023-04-24T14:03:06;4.63;;;2.50;;
21239;SDS011;10778;48.962;9.018;2023-04-24T14:05:32;4.32;;;2.25;;
21239;SDS011;10778;48.962;9.018;2023-04-24T14:07:58;3.50;;;2.53;;
21239;SDS011;10778;48.962;9.018;2023-04-24T14:10:24;4.43;;;2.63;;
21239;SDS011;10778;48.962;9.018;2023-04-24T14:12:51;6.13;;;2.97;;
21239;SDS011;10778;48.962;9.018;2023-04-24T14:15:17;4.28;;;2.75;;
21239;SDS011;10778;48.962;9.018;2023-04-24T14:17:43;4.40;;;2.78;;
21239;SDS011;10778;48.962;9.018;2023-04-24T14:20:10;6.45;;;2.50;;
21239;SDS011;10778;48.962;9.018;2023-04-24T14:22:36;4.22;;;2.60;;
21239;SDS011;10778;48.962;9.018;2023-04-24T14:25:02;3.40;;;2.50;;
21239;SDS011;10778;48.962;9.018;2023-04-24T14:27:28;4.20;;;2.58;;
21239;SDS011;10778;48.962;9.018;2023-04-24T14:29:55;3.47;;;2.45;;
21239;SDS011;10778;48.962;9.018;2023-04-24T14:32:22;3.75;;;2.75;;
21239;SDS011;10778;48.962;9.018;2023-04-24T14:34:48;5.18;;;2.60;;
21239;SDS011;10778;48.962;9.018;2023-04-24T14:37:14;4.13;;;2.70;;
21239;SDS011;10778;48.962;9.018;2023-04-24T14:39:40;4.90;;;2.40;;
21239;SDS011;10778;48.962;9.018;2023-04-24T14:42:06;4.10;;;2.35;;
21239;SDS011;10778;48.962;9.018;2023-04-24T14:44:32;3.85;;;2.30;;
21239;SDS011;10778;48.962;9.018;2023-04-24T14:46:58;3.83;;;2.20;;
21239;SDS011;10778;48.962;9.018;2023-04-24T14:49:24;4.32;;;3.03;;
21239;SDS011;10778;48.962;9.018;2023-04-24T14:51:51;4.25;;;2.60;;
21239;SDS011;10778;48.962;9.018;2023-04-24T14:54:17;4.45;;;3.22;;
21239;SDS011;10778;48.962;9.018;2023-04-24T14:56:43;5.68;;;2.70;;
21239;SDS011;10778;48.962;9.018;2023-04-24T14:59:10;3.10;;;1.95;;
21239;SDS011;10778;48.962;9.018;2023-04-24T15:01:36;3.28;;;1.80;;
21239;SDS011;10778;48.962;9.018;2023-04-24T15:04:02;4.03;;;1.85;;
21239;SDS011;10778;48.962;9.018;2023-04-24T15:06:29;2.05;;;1.80;;
21239;SDS011;10778;48.962;9.018;2023-04-24T15:08:57;6.18;;;1.90;;
21239;SDS011;10778;48.962;9.018;2023-04-24T15:11:23;3.30;;;1.80;;
21239;SDS011;10778;48.962;9.018;2023-04-24T15:13:49;2.95;;;2.08;;
21239;SDS011;10778;48.962;9.018;2023-04-24T15:16:15;4.63;;;2.00;;
21239;SDS011;10778;48.962;9.018;2023-04-24T15:18:42;4.10;;;2.10;;